Time;durP1;ratioP1;P1;durP2;ratioP2;P2;SDS_P1;SDS_P2;PMS_P1;PMS_P2;Temp;Humidity;BMP_temperature;BMP_pressure;BME280_temperature;BME280_humidity;BME280_pressure;Samples;Min_cycle;Max_cycle;Signal;HPM_P1;HPM_P2
2022/07/30 00:01:58;;;;;;;15.20;13.40;;;;;;;;;;10515328;28;20283;-74
2022/07/30 00:06:58;;;;;;;14.07;11.50;;;;;;;;;;10523267;28;20044;-73
2022/07/30 00:11:59;;;;;;;18.05;14.10;;;;;;;;;;10514825;28;20290;-73
2022/07/30 00:17:03;;;;;;;18.53;13.53;;;;;;;;;;10507155;28;20067;-74
2022/07/30 00:22:03;;;;;;;16.23;13.48;;;;;;;;;;10507695;28;20757;-73
2022/07/30 00:27:04;;;;;;;14.33;12.73;;;;;;;;;;10511284;28;20044;-74
2022/07/30 00:32:04;;;;;;;14.50;12.87;;;;;;;;;;10513483;28;20352;-74
2022/07/30 00:37:04;;;;;;;16.02;12.93;;;;;;;;;;10491409;28;20356;-74
2022/07/30 00:42:05;;;;;;;17.00;14.40;;;;;;;;;;10511114;28;20044;-74
2022/07/30 00:47:05;;;;;;;16.17;14.10;;;;;;;;;;10510503;28;20287;-74
2022/07/30 00:52:06;;;;;;;16.60;14.02;;;;;;;;;;10517278;28;20309;-74
2022/07/30 00:57:06;;;;;;;15.47;13.40;;;;;;;;;;10507426;28;20044;-73
2022/07/30 01:02:06;;;;;;;15.57;13.77;;;;;;;;;;10509180;28;20389;-75
2022/07/30 01:07:07;;;;;;;13.83;12.33;;;;;;;;;;10504732;28;20290;-73
2022/07/30 01:12:08;;;;;;;13.63;12.20;;;;;;;;;;10509451;28;20037;-73
2022/07/30 01:17:09;;;;;;;16.10;14.23;;;;;;;;;;10502366;28;20298;-73
2022/07/30 01:22:13;;;;;;;16.23;13.05;;;;;;;;;;10503401;28;20376;-73
2022/07/30 01:27:15;;;;;;;16.88;15.02;;;;;;;;;;10494701;28;20056;-74
2022/07/30 01:32:16;;;;;;;17.35;14.02;;;;;;;;;;10502199;28;20044;-72
2022/07/30 01:37:17;;;;;;;20.03;16.07;;;;;;;;;;10524638;28;20147;-73
2022/07/30 01:42:18;;;;;;;15.95;14.25;;;;;;;;;;10513724;28;20141;-72
2022/07/30 01:47:19;;;;;;;18.30;15.38;;;;;;;;;;10506823;28;20054;-73
2022/07/30 01:52:21;;;;;;;26.75;19.13;;;;;;;;;;10501134;28;20805;-73
2022/07/30 01:57:21;;;;;;;29.02;21.42;;;;;;;;;;10516713;28;20028;-73
2022/07/30 02:02:22;;;;;;;38.58;24.65;;;;;;;;;;10505822;28;20036;-73
2022/07/30 02:07:26;;;;;;;35.22;22.70;;;;;;;;;;10519578;28;20044;-73
2022/07/30 02:12:28;;;;;;;34.53;24.75;;;;;;;;;;10518099;28;20044;-73
2022/07/30 02:17:35;;;;;;;35.28;22.42;;;;;;;;;;10525226;28;20052;-74
2022/07/30 02:22:38;;;;;;;32.67;23.52;;;;;;;;;;10523095;28;20052;-74
2022/07/30 02:27:39;;;;;;;42.22;27.92;;;;;;;;;;10505901;28;20044;-74
2022/07/30 02:32:41;;;;;;;37.80;25.33;;;;;;;;;;10511257;28;20486;-74
2022/07/30 02:37:42;;;;;;;44.17;29.67;;;;;;;;;;10514235;28;20068;-74
2022/07/30 02:42:45;;;;;;;35.45;23.80;;;;;;;;;;10510127;28;20478;-74
2022/07/30 02:47:49;;;;;;;35.45;24.33;;;;;;;;;;10516123;28;20086;-75
2022/07/30 02:52:50;;;;;;;38.97;26.50;;;;;;;;;;10510539;28;20900;-74
2022/07/30 02:57:52;;;;;;;38.63;26.85;;;;;;;;;;10517986;28;20044;-75
2022/07/30 03:02:54;;;;;;;35.70;24.27;;;;;;;;;;10522363;28;20725;-75
2022/07/30 03:07:56;;;;;;;41.83;27.60;;;;;;;;;;10516798;28;20869;-74
2022/07/30 03:12:57;;;;;;;36.13;23.90;;;;;;;;;;10511895;28;20407;-74
2022/07/30 03:17:58;;;;;;;46.78;30.55;;;;;;;;;;10517831;28;20055;-74
2022/07/30 03:23:00;;;;;;;43.97;28.88;;;;;;;;;;10507357;28;20083;-73
2022/07/30 03:28:03;;;;;;;36.58;24.65;;;;;;;;;;10512320;28;20044;-72
2022/07/30 03:33:04;;;;;;;39.87;26.03;;;;;;;;;;10511942;28;20040;-73
2022/07/30 03:38:05;;;;;;;35.47;24.20;;;;;;;;;;10510834;28;20067;-74
2022/07/30 03:43:08;;;;;;;39.95;26.73;;;;;;;;;;10509663;28;20044;-73
2022/07/30 03:48:09;;;;;;;33.70;24.43;;;;;;;;;;10520920;28;20048;-73
2022/07/30 03:53:12;;;;;;;35.60;23.65;;;;;;;;;;10515946;28;20129;-72
2022/07/30 03:58:31;;;;;;;32.22;23.70;;;;;;;;;;10494808;28;20052;-72
2022/07/30 04:03:32;;;;;;;31.17;22.83;;;;;;;;;;10510648;28;20036;-73
2022/07/30 04:08:37;;;;;;;30.88;22.35;;;;;;;;;;10510823;28;20456;-74
2022/07/30 04:13:38;;;;;;;30.17;22.50;;;;;;;;;;10500708;28;20032;-73
2022/07/30 04:18:45;;;;;;;30.77;22.93;;;;;;;;;;10504393;28;20283;-74
2022/07/30 04:23:47;;;;;;;30.45;22.55;;;;;;;;;;10509690;28;20147;-74
2022/07/30 04:28:48;;;;;;;31.60;23.98;;;;;;;;;;10526071;28;20059;-73
2022/07/30 04:33:48;;;;;;;32.53;23.60;;;;;;;;;;10512542;28;20043;-74
2022/07/30 04:39:02;;;;;;;35.40;25.40;;;;;;;;;;10508335;28;20087;-73
2022/07/30 04:44:03;;;;;;;31.30;23.65;;;;;;;;;;10503975;28;20523;-73
2022/07/30 04:49:05;;;;;;;;;;;;;;;;;;10505072;28;20531;-73
2022/07/30 04:54:08;;;;;;;37.90;25.17;;;;;;;;;;10504436;28;20640;-72
2022/07/30 04:59:09;;;;;;;33.90;23.58;;;;;;;;;;10504313;28;20056;-73
2022/07/30 05:04:10;;;;;;;34.85;24.42;;;;;;;;;;10508319;28;20058;-72
2022/07/30 05:09:10;;;;;;;34.35;24.65;;;;;;;;;;10511258;28;20036;-73
2022/07/30 05:14:11;;;;;;;42.10;28.27;;;;;;;;;;10509319;28;20036;-74
2022/07/30 05:19:12;;;;;;;35.87;24.73;;;;;;;;;;10516232;28;20417;-74
2022/07/30 05:24:12;;;;;;;33.08;23.40;;;;;;;;;;10510711;28;20043;-73
2022/07/30 05:29:15;;;;;;;31.67;22.95;;;;;;;;;;10510191;28;20044;-75
2022/07/30 05:34:20;;;;;;;30.27;21.77;;;;;;;;;;10517785;28;20395;-74
2022/07/30 05:39:20;;;;;;;27.52;21.17;;;;;;;;;;10512104;28;20052;-74
2022/07/30 05:44:26;;;;;;;28.90;21.05;;;;;;;;;;10522985;28;20075;-78
2022/07/30 05:49:28;;;;;;;25.27;18.55;;;;;;;;;;10523632;28;20063;-72
2022/07/30 05:54:37;;;;;;;28.40;20.90;;;;;;;;;;10523501;28;20093;-71
2022/07/30 05:59:56;;;;;;;24.80;19.10;;;;;;;;;;10524696;28;20048;-72
2022/07/30 06:05:16;;;;;;;23.15;16.05;;;;;;;;;;10533597;28;20039;-72
2022/07/30 06:10:18;;;;;;;20.05;15.60;;;;;;;;;;10492997;28;20700;-72
2022/07/30 06:15:18;;;;;;;20.80;16.40;;;;;;;;;;10516877;28;20036;-71
2022/07/30 06:20:20;;;;;;;18.52;14.55;;;;;;;;;;10522551;28;20052;-72
2022/07/30 06:25:37;;;;;;;14.85;12.95;;;;;;;;;;10520504;28;20119;-72
2022/07/30 06:30:39;;;;;;;15.00;13.40;;;;;;;;;;10520084;28;20040;-73
2022/07/30 06:35:40;;;;;;;13.32;11.35;;;;;;;;;;10507504;28;20637;-72
2022/07/30 06:40:41;;;;;;;12.18;9.85;;;;;;;;;;10511201;28;20151;-71
2022/07/30 06:45:54;;;;;;;11.52;10.00;;;;;;;;;;10523691;28;20437;-72
2022/07/30 06:50:58;;;;;;;16.45;13.27;;;;;;;;;;10508589;28;20144;-71
2022/07/30 06:55:59;;;;;;;9.77;8.77;;;;;;;;;;10516485;28;20059;-71
2022/07/30 07:01:02;;;;;;;7.55;6.85;;;;;;;;;;10524980;28;20060;-72
2022/07/30 07:06:04;;;;;;;9.47;8.47;;;;;;;;;;10493765;28;20056;-72
2022/07/30 07:11:05;;;;;;;9.65;8.63;;;;;;;;;;10504572;28;20039;-72
2022/07/30 07:16:15;;;;;;;8.93;8.02;;;;;;;;;;10527516;28;20063;-71
2022/07/30 07:21:20;;;;;;;10.82;8.02;;;;;;;;;;10504919;28;20096;-72
2022/07/30 07:26:21;;;;;;;6.70;6.10;;;;;;;;;;10523879;28;20470;-71
2022/07/30 07:31:21;;;;;;;7.65;6.95;;;;;;;;;;10530773;28;20344;-73
2022/07/30 07:36:22;;;;;;;5.72;5.22;;;;;;;;;;10535213;28;20052;-74
2022/07/30 07:41:23;;;;;;;7.18;6.47;;;;;;;;;;10515875;28;20043;-74
2022/07/30 07:46:23;;;;;;;6.20;5.70;;;;;;;;;;10517627;28;20076;-72
2022/07/30 07:51:24;;;;;;;7.07;6.45;;;;;;;;;;10516571;28;20113;-76
2022/07/30 07:56:24;;;;;;;6.68;6.00;;;;;;;;;;10513139;28;20044;-73
2022/07/30 08:01:26;;;;;;;7.00;6.40;;;;;;;;;;10510044;28;20047;-74
2022/07/30 08:07:04;;;;;;;6.95;6.15;;;;;;;;;;10430628;28;20040;-72
2022/07/30 08:12:26;;;;;;;6.90;6.20;;;;;;;;;;10500170;28;20044;-72
2022/07/30 08:17:46;;;;;;;5.90;5.25;;;;;;;;;;10506588;28;20048;-73
2022/07/30 08:22:51;;;;;;;5.72;5.10;;;;;;;;;;10512164;28;20126;-75
2022/07/30 08:27:51;;;;;;;6.13;5.30;;;;;;;;;;10501904;28;20371;-73
2022/07/30 08:32:52;;;;;;;6.53;5.93;;;;;;;;;;10507569;28;20286;-73
2022/07/30 08:37:52;;;;;;;8.40;6.43;;;;;;;;;;10493411;28;20047;-74
2022/07/30 08:42:55;;;;;;;9.15;8.25;;;;;;;;;;10533125;28;20041;-74
2022/07/30 08:47:56;;;;;;;7.80;7.10;;;;;;;;;;10520513;28;20048;-74
2022/07/30 08:53:05;;;;;;;7.28;6.57;;;;;;;;;;10527019;28;20052;-75
2022/07/30 08:58:15;;;;;;;7.68;6.55;;;;;;;;;;10526423;28;20056;-73
2022/07/30 09:03:15;;;;;;;6.22;5.63;;;;;;;;;;10500863;28;20133;-73
2022/07/30 09:08:16;;;;;;;6.97;6.37;;;;;;;;;;10517609;28;20127;-74
2022/07/30 09:13:30;;;;;;;7.40;6.60;;;;;;;;;;10505027;28;20652;-79
2022/07/30 09:18:41;;;;;;;7.80;7.00;;;;;;;;;;10532184;28;20109;-79
2022/07/30 09:24:08;;;;;;;8.48;7.60;;;;;;;;;;10545916;28;20062;-80
2022/07/30 09:29:28;;;;;;;7.70;6.93;;;;;;;;;;10541981;28;20055;-79
2022/07/30 09:34:47;;;;;;;6.75;6.15;;;;;;;;;;10542619;28;20555;-78
2022/07/30 09:40:15;;;;;;;7.65;6.88;;;;;;;;;;10511874;28;20044;-78
2022/07/30 09:45:34;;;;;;;7.47;6.78;;;;;;;;;;10523839;28;20040;-80
2022/07/30 09:50:37;;;;;;;6.60;6.10;;;;;;;;;;10537084;28;20498;-79
2022/07/30 09:55:38;;;;;;;6.28;5.75;;;;;;;;;;10520589;28;20044;-81
2022/07/30 10:00:39;;;;;;;6.28;5.68;;;;;;;;;;10539551;28;20060;-80
2022/07/30 10:06:02;;;;;;;8.05;7.03;;;;;;;;;;10529304;28;20136;-80
2022/07/30 10:11:03;;;;;;;5.95;5.45;;;;;;;;;;10518919;28;20063;-82
2022/07/30 10:16:04;;;;;;;4.90;4.47;;;;;;;;;;10551256;28;20062;-81
2022/07/30 10:21:06;;;;;;;5.50;5.00;;;;;;;;;;10558690;28;20399;-80
2022/07/30 10:26:26;;;;;;;5.88;5.28;;;;;;;;;;10543718;28;20531;-80
2022/07/30 10:31:47;;;;;;;6.07;5.53;;;;;;;;;;10534094;28;20047;-80
2022/07/30 10:36:50;;;;;;;5.80;5.30;;;;;;;;;;10547092;28;20095;-82
2022/07/30 10:42:29;;;;;;;5.13;4.70;;;;;;;;;;10527928;28;20048;-81
2022/07/30 10:47:33;;;;;;;5.47;4.97;;;;;;;;;;10479467;28;20036;-83
2022/07/30 10:52:44;;;;;;;4.25;3.95;;;;;;;;;;10552078;28;20052;-81
2022/07/30 10:57:57;;;;;;;4.32;3.92;;;;;;;;;;10555398;28;20054;-81
2022/07/30 11:03:12;;;;;;;5.90;5.28;;;;;;;;;;10543469;28;20062;-83
2022/07/30 11:08:27;;;;;;;6.38;3.92;;;;;;;;;;10567016;27;20111;-81
2022/07/30 11:13:47;;;;;;;5.80;5.03;;;;;;;;;;10549368;28;20499;-81
2022/07/30 11:19:06;;;;;;;6.07;5.47;;;;;;;;;;10550916;28;20628;-80
2022/07/30 11:24:26;;;;;;;8.43;6.03;;;;;;;;;;10541120;28;20163;-79
2022/07/30 11:29:40;;;;;;;7.50;6.30;;;;;;;;;;10551353;28;20127;-80
2022/07/30 11:34:44;;;;;;;5.60;5.05;;;;;;;;;;10538968;28;20036;-80
2022/07/30 11:39:56;;;;;;;6.43;5.45;;;;;;;;;;10527211;28;20346;-79
2022/07/30 11:45:17;;;;;;;6.05;5.45;;;;;;;;;;10545620;28;20119;-79
2022/07/30 11:50:39;;;;;;;6.15;5.60;;;;;;;;;;10532265;28;20064;-79
2022/07/30 11:55:46;;;;;;;6.25;5.60;;;;;;;;;;10546508;28;20044;-78
2022/07/30 12:00:46;;;;;;;7.07;6.38;;;;;;;;;;10537960;28;20048;-80
2022/07/30 12:05:48;;;;;;;6.88;6.07;;;;;;;;;;10543258;28;20028;-80
2022/07/30 12:10:59;;;;;;;7.03;5.72;;;;;;;;;;10518877;28;20037;-80
2022/07/30 12:15:59;;;;;;;5.78;5.28;;;;;;;;;;10539549;28;20062;-80
2022/07/30 12:21:01;;;;;;;5.40;4.90;;;;;;;;;;10549745;28;20048;-81
2022/07/30 12:26:04;;;;;;;4.70;4.30;;;;;;;;;;10544638;28;20043;-79
2022/07/30 12:31:06;;;;;;;5.70;4.88;;;;;;;;;;10505609;28;20128;-80
2022/07/30 12:36:09;;;;;;;5.78;4.40;;;;;;;;;;10536447;28;20443;-80
2022/07/30 12:41:09;;;;;;;4.75;4.35;;;;;;;;;;10533831;28;20043;-79
2022/07/30 12:46:11;;;;;;;5.38;4.93;;;;;;;;;;10515578;28;20047;-78
2022/07/30 12:51:11;;;;;;;5.57;4.85;;;;;;;;;;10514734;28;20697;-81
2022/07/30 12:56:13;;;;;;;6.27;5.00;;;;;;;;;;10527041;28;20109;-79
2022/07/30 13:01:14;;;;;;;5.87;4.67;;;;;;;;;;10542438;28;20091;-81
2022/07/30 13:06:15;;;;;;;6.47;4.00;;;;;;;;;;10517469;28;20338;-78
2022/07/30 13:11:16;;;;;;;5.40;3.95;;;;;;;;;;10520214;28;20135;-81
2022/07/30 13:16:17;;;;;;;3.92;3.15;;;;;;;;;;10518915;28;20039;-78
2022/07/30 13:21:18;;;;;;;3.90;3.60;;;;;;;;;;10551689;28;20565;-78
2022/07/30 13:26:19;;;;;;;4.03;3.00;;;;;;;;;;10518048;28;20045;-78
2022/07/30 13:31:27;;;;;;;5.35;4.85;;;;;;;;;;10502676;28;20307;-81
2022/07/30 13:36:28;;;;;;;6.10;5.38;;;;;;;;;;10572842;28;20012;-81
2022/07/30 13:41:30;;;;;;;5.18;3.97;;;;;;;;;;10558630;28;20051;-78
2022/07/30 13:46:32;;;;;;;4.30;3.38;;;;;;;;;;10566088;28;20036;-79
2022/07/30 13:51:33;;;;;;;6.20;3.53;;;;;;;;;;10529891;28;20036;-79
2022/07/30 13:56:33;;;;;;;3.58;3.13;;;;;;;;;;10525165;28;20102;-78
2022/07/30 14:01:34;;;;;;;3.80;3.45;;;;;;;;;;10540385;28;20135;-79
2022/07/30 14:06:35;;;;;;;4.50;4.10;;;;;;;;;;10552442;28;20039;-83
2022/07/30 14:11:35;;;;;;;5.85;3.90;;;;;;;;;;10548987;28;20484;-84
2022/07/30 14:16:39;;;;;;;3.90;3.60;;;;;;;;;;10526764;28;20048;-83
2022/07/30 14:21:42;;;;;;;4.32;3.92;;;;;;;;;;10523919;28;20105;-82
2022/07/30 14:26:47;;;;;;;4.88;3.55;;;;;;;;;;10540260;28;20044;-82
2022/07/30 14:31:52;;;;;;;5.10;3.80;;;;;;;;;;10530448;28;20625;-84
2022/07/30 14:36:53;;;;;;;5.87;3.67;;;;;;;;;;10546198;28;20100;-83
2022/07/30 14:41:54;;;;;;;3.67;3.38;;;;;;;;;;10519077;28;20340;-81
2022/07/30 14:46:56;;;;;;;3.55;3.25;;;;;;;;;;10543835;28;20052;-83
2022/07/30 14:51:57;;;;;;;9.50;6.53;;;;;;;;;;10531038;28;20066;-85
2022/07/30 14:57:00;;;;;;;4.23;3.70;;;;;;;;;;10553072;28;20104;-75
2022/07/30 15:02:00;;;;;;;4.30;3.55;;;;;;;;;;10512775;28;20135;-77
2022/07/30 15:07:01;;;;;;;7.17;4.30;;;;;;;;;;10524203;28;20126;-76
2022/07/30 15:12:02;;;;;;;6.53;5.85;;;;;;;;;;10515394;28;20043;-74
2022/07/30 15:17:17;;;;;;;5.90;4.97;;;;;;;;;;10531937;28;20069;-85
2022/07/30 15:22:19;;;;;;;12.23;8.75;;;;;;;;;;10555514;28;20103;-79
2022/07/30 15:27:19;;;;;;;10.40;9.45;;;;;;;;;;10546013;28;20055;-80
2022/07/30 15:32:21;;;;;;;24.55;21.95;;;;;;;;;;10550922;28;20040;-80
2022/07/30 15:37:22;;;;;;;8.63;7.83;;;;;;;;;;10529894;28;20035;-79
2022/07/30 15:42:26;;;;;;;9.63;8.20;;;;;;;;;;10518394;28;20854;-81
2022/07/30 15:47:27;;;;;;;10.68;7.22;;;;;;;;;;10503458;28;20052;-78
2022/07/30 15:52:28;;;;;;;5.67;4.97;;;;;;;;;;10501377;28;20048;-76
2022/07/30 15:57:28;;;;;;;5.05;4.60;;;;;;;;;;10503062;28;20463;-77
2022/07/30 16:02:29;;;;;;;4.75;4.35;;;;;;;;;;10514951;28;20180;-77
2022/07/30 16:07:30;;;;;;;5.00;4.60;;;;;;;;;;10523687;28;20063;-78
2022/07/30 16:12:30;;;;;;;4.25;3.83;;;;;;;;;;10518277;28;20037;-74
2022/07/30 16:17:31;;;;;;;4.60;4.20;;;;;;;;;;10527773;28;20044;-74
2022/07/30 16:22:31;;;;;;;4.70;4.30;;;;;;;;;;10522015;28;20486;-74
2022/07/30 16:27:31;;;;;;;4.75;3.92;;;;;;;;;;10507699;28;20349;-74
2022/07/30 16:32:32;;;;;;;4.57;4.18;;;;;;;;;;10506449;28;20044;-74
2022/07/30 16:37:32;;;;;;;4.83;4.20;;;;;;;;;;10514230;28;20510;-75
2022/07/30 16:42:33;;;;;;;12.90;11.53;;;;;;;;;;10521149;28;20317;-75
2022/07/30 16:47:33;;;;;;;4.57;4.10;;;;;;;;;;10520553;28;20094;-74
2022/07/30 16:52:34;;;;;;;4.10;3.70;;;;;;;;;;10523649;28;20052;-74
2022/07/30 16:57:34;;;;;;;4.80;4.40;;;;;;;;;;10525117;28;20268;-75
2022/07/30 17:02:34;;;;;;;4.10;3.80;;;;;;;;;;10517199;28;20059;-74
2022/07/30 17:07:35;;;;;;;5.53;3.90;;;;;;;;;;10510434;28;20313;-75
2022/07/30 17:12:35;;;;;;;5.37;4.23;;;;;;;;;;10511306;28;20048;-74
2022/07/30 17:17:35;;;;;;;5.37;4.87;;;;;;;;;;10510041;28;20044;-75
2022/07/30 17:22:36;;;;;;;6.07;4.65;;;;;;;;;;10514324;28;20342;-74
2022/07/30 17:27:36;;;;;;;4.80;4.22;;;;;;;;;;10506060;28;20071;-78
2022/07/30 17:32:38;;;;;;;4.93;4.50;;;;;;;;;;10493360;28;20036;-76
2022/07/30 17:37:40;;;;;;;5.20;4.70;;;;;;;;;;10535347;28;20048;-76
2022/07/30 17:42:42;;;;;;;4.72;4.20;;;;;;;;;;10529412;28;21047;-76
2022/07/30 17:47:43;;;;;;;4.80;4.32;;;;;;;;;;10526212;28;20044;-78
2022/07/30 17:52:43;;;;;;;4.57;4.17;;;;;;;;;;10521072;28;20059;-77
2022/07/30 17:57:43;;;;;;;5.37;4.87;;;;;;;;;;10518189;28;20054;-76
2022/07/30 18:02:44;;;;;;;4.78;4.38;;;;;;;;;;10515033;28;20052;-77
2022/07/30 18:07:44;;;;;;;5.82;4.80;;;;;;;;;;10534202;28;20032;-76
2022/07/30 18:12:45;;;;;;;4.88;4.40;;;;;;;;;;10513045;28;20051;-77
2022/07/30 18:17:45;;;;;;;5.00;4.00;;;;;;;;;;10517801;28;20050;-77
2022/07/30 18:22:46;;;;;;;4.80;4.30;;;;;;;;;;10531732;28;20694;-75
2022/07/30 18:27:46;;;;;;;4.70;4.30;;;;;;;;;;10531727;28;20044;-77
2022/07/30 18:32:47;;;;;;;5.20;4.22;;;;;;;;;;10524985;28;20090;-75
2022/07/30 18:37:48;;;;;;;5.65;4.10;;;;;;;;;;10529101;28;20525;-82
2022/07/30 18:42:49;;;;;;;4.35;3.95;;;;;;;;;;10521829;28;20215;-82
2022/07/30 18:47:50;;;;;;;4.45;4.05;;;;;;;;;;10526464;28;20058;-81
2022/07/30 18:52:57;;;;;;;4.75;4.20;;;;;;;;;;10518293;28;20043;-82
2022/07/30 18:58:03;;;;;;;4.47;4.07;;;;;;;;;;10546836;28;20036;-84
2022/07/30 19:03:21;;;;;;;4.68;4.20;;;;;;;;;;10544381;28;20067;-82
2022/07/30 19:08:41;;;;;;;4.63;4.00;;;;;;;;;;10547277;27;20032;-79
2022/07/30 19:13:52;;;;;;;5.10;4.70;;;;;;;;;;10565064;28;20055;-82
2022/07/30 19:18:58;;;;;;;4.53;4.13;;;;;;;;;;10547962;28;20064;-83
2022/07/30 19:24:19;;;;;;;6.78;6.00;;;;;;;;;;10559433;28;20053;-82
2022/07/30 19:29:23;;;;;;;5.05;4.55;;;;;;;;;;10542441;28;20103;-84
2022/07/30 19:34:24;;;;;;;6.20;4.90;;;;;;;;;;10537514;28;20081;-80
2022/07/30 19:39:27;;;;;;;5.63;5.13;;;;;;;;;;10536433;28;20051;-78
2022/07/30 19:44:28;;;;;;;7.43;6.57;;;;;;;;;;10539263;27;20104;-81
2022/07/30 19:49:29;;;;;;;7.45;6.43;;;;;;;;;;10546570;28;20467;-79
2022/07/30 19:54:29;;;;;;;6.50;5.90;;;;;;;;;;10542601;28;20036;-81
2022/07/30 19:59:30;;;;;;;6.68;6.07;;;;;;;;;;10532755;28;20373;-80
2022/07/30 20:04:33;;;;;;;7.60;6.88;;;;;;;;;;10567571;28;20028;-80
2022/07/30 20:09:40;;;;;;;8.30;7.50;;;;;;;;;;10577923;28;20041;-80
2022/07/30 20:14:41;;;;;;;7.63;6.78;;;;;;;;;;10541394;28;20780;-81
2022/07/30 20:19:42;;;;;;;8.48;7.68;;;;;;;;;;10553782;28;20062;-82
2022/07/30 20:24:48;;;;;;;8.63;7.72;;;;;;;;;;10556454;28;20096;-83
2022/07/30 20:29:48;;;;;;;8.98;7.78;;;;;;;;;;10515861;28;20392;-77
2022/07/30 20:34:49;;;;;;;8.93;8.23;;;;;;;;;;10515410;28;20035;-76
2022/07/30 20:39:49;;;;;;;10.10;8.52;;;;;;;;;;10510598;28;20300;-76
2022/07/30 20:44:52;;;;;;;8.15;7.40;;;;;;;;;;10516576;28;20044;-75
2022/07/30 20:49:52;;;;;;;8.93;8.02;;;;;;;;;;10506699;28;20040;-75
2022/07/30 20:54:52;;;;;;;10.23;9.32;;;;;;;;;;10517092;28;20037;-76
2022/07/30 20:59:53;;;;;;;10.82;9.82;;;;;;;;;;10504257;28;20044;-75
2022/07/30 21:04:53;;;;;;;11.60;10.50;;;;;;;;;;10517273;28;20455;-76
2022/07/30 21:09:54;;;;;;;10.13;9.23;;;;;;;;;;10522956;28;20775;-77
2022/07/30 21:14:56;;;;;;;10.65;9.65;;;;;;;;;;10499349;28;20377;-77
2022/07/30 21:19:57;;;;;;;12.10;10.93;;;;;;;;;;10519390;28;20075;-76
2022/07/30 21:24:58;;;;;;;11.55;10.45;;;;;;;;;;10526726;28;20422;-77
2022/07/30 21:29:59;;;;;;;10.43;8.83;;;;;;;;;;10519792;28;20047;-77
2022/07/30 21:35:00;;;;;;;9.43;8.60;;;;;;;;;;10507516;28;20306;-78
2022/07/30 21:40:00;;;;;;;11.27;10.27;;;;;;;;;;10512834;28;20356;-76
2022/07/30 21:45:02;;;;;;;11.83;10.73;;;;;;;;;;10507321;28;20121;-76
2022/07/30 21:50:03;;;;;;;11.43;10.23;;;;;;;;;;10518705;28;20236;-77
2022/07/30 21:55:04;;;;;;;10.82;9.73;;;;;;;;;;10513945;28;20070;-78
2022/07/30 22:00:06;;;;;;;11.82;10.15;;;;;;;;;;10530048;28;20074;-77
2022/07/30 22:05:11;;;;;;;10.73;9.73;;;;;;;;;;10512398;28;20487;-76
2022/07/30 22:10:12;;;;;;;12.07;10.97;;;;;;;;;;10521820;28;20064;-76
2022/07/30 22:15:13;;;;;;;12.82;11.65;;;;;;;;;;10518685;28;20346;-77
2022/07/30 22:20:14;;;;;;;12.65;11.50;;;;;;;;;;10513967;28;20561;-76
2022/07/30 22:25:14;;;;;;;11.20;10.20;;;;;;;;;;10515078;28;20049;-76
2022/07/30 22:30:15;;;;;;;11.85;10.70;;;;;;;;;;10513492;28;20035;-78
2022/07/30 22:35:16;;;;;;;12.98;11.80;;;;;;;;;;10521795;28;20645;-74
2022/07/30 22:40:16;;;;;;;12.57;11.32;;;;;;;;;;10518207;28;20055;-74
2022/07/30 22:45:17;;;;;;;10.98;9.98;;;;;;;;;;10514829;28;20036;-75
2022/07/30 22:50:18;;;;;;;12.15;11.05;;;;;;;;;;10527326;28;20371;-75
2022/07/30 22:55:18;;;;;;;12.90;11.70;;;;;;;;;;10534556;28;20135;-75
2022/07/30 23:00:19;;;;;;;14.68;13.18;;;;;;;;;;10509634;28;20052;-76
2022/07/30 23:05:19;;;;;;;14.45;12.95;;;;;;;;;;10513003;28;20728;-74
2022/07/30 23:10:20;;;;;;;13.98;12.68;;;;;;;;;;10525245;28;20036;-74
2022/07/30 23:15:20;;;;;;;15.00;13.50;;;;;;;;;;10526463;28;20128;-75
2022/07/30 23:20:20;;;;;;;17.23;15.48;;;;;;;;;;10564480;28;20289;-77
2022/07/30 23:25:21;;;;;;;14.77;13.27;;;;;;;;;;10537235;28;20080;-75
2022/07/30 23:30:23;;;;;;;15.05;13.65;;;;;;;;;;10556434;28;20061;-74
2022/07/30 23:35:23;;;;;;;13.77;12.35;;;;;;;;;;10512955;28;20149;-75
2022/07/30 23:40:24;;;;;;;11.90;10.77;;;;;;;;;;10520525;28;20513;-74
2022/07/30 23:45:24;;;;;;;12.32;11.13;;;;;;;;;;10517330;27;20748;-74
2022/07/30 23:50:24;;;;;;;11.30;10.27;;;;;;;;;;10507702;28;20041;-75
2022/07/30 23:55:25;;;;;;;11.05;10.00;;;;;;;;;;10515454;28;20286;-74
